Port Hedland, Australia
Current Conditions -  °F | °C
As of 11:30 AM on Sunday 26 Oct 2014 (Local Time) from YPPD Reporting Station
Clear Clear  
Wind Chill: 106°   Ceiling: Unl
Heat Index: 106°   Visibility: 6mi
Dew Point: 27°   Wind: 13mph
Humidity: 6%   Direction: 170°S
Pressure: 29.85"   Gusts: NA
Location:  20.31°S, 118.58°E
Report Text: YPPD 260330Z 17011KT CAVOK 41/M03 Q1011
Loading
Personal Weather Stations






























Interactive Weather Map
Tropical Storm Tracking
New forecast layout! Learn more

10-Day Weather Forecast

Advertisements
Track Severe Weather on mobile